Time;durP1;ratioP1;P1;durP2;ratioP2;P2;SDS_P1;SDS_P2;PMS_P1;PMS_P2;Temp;Humidity;BMP_temperature;BMP_pressure;BME280_temperature;BME280_humidity;BME280_pressure;Samples;Min_cycle;Max_cycle;Signal;HPM_P1;HPM_P2
2022/05/18 00:01:40;;;;;;;1.20;0.80;;;;;;;15.01;67.20;101855.59;5037978;28;20546;-78
2022/05/18 00:04:07;;;;;;;2.13;1.20;;;;;;;15.00;65.29;101864.84;5037111;28;20869;-76
2022/05/18 00:06:34;;;;;;;1.53;0.60;;;;;;;14.96;64.89;101861.91;5036762;28;20467;-78
2022/05/18 00:09:00;;;;;;;1.60;1.20;;;;;;;14.92;65.58;101860.09;5038639;28;20446;-77
2022/05/18 00:11:27;;;;;;;1.77;1.07;;;;;;;14.94;67.17;101866.06;5039109;28;20439;-77
2022/05/18 00:13:54;;;;;;;1.17;0.60;;;;;;;14.89;66.31;101867.78;5037963;28;20486;-77
2022/05/18 00:16:23;;;;;;;1.20;1.10;;;;;;;14.84;67.48;101873.31;5039544;28;20495;-77
2022/05/18 00:18:50;;;;;;;1.90;1.10;;;;;;;14.80;66.22;101872.28;5038186;28;20828;-77
2022/05/18 00:21:18;;;;;;;2.00;1.30;;;;;;;14.72;64.50;101869.44;5038578;28;20881;-77
2022/05/18 00:23:45;;;;;;;0.97;0.70;;;;;;;14.64;66.03;101876.34;5038714;28;20443;-77
2022/05/18 00:26:12;;;;;;;2.17;1.20;;;;;;;14.57;64.50;101875.94;5038250;28;20459;-78
2022/05/18 00:28:39;;;;;;;1.33;0.90;;;;;;;14.55;65.76;101878.94;5038433;28;20447;-77
2022/05/18 00:31:05;;;;;;;2.00;1.03;;;;;;;14.52;66.41;101884.16;5038679;28;20821;-77
2022/05/18 00:33:32;;;;;;;1.10;0.73;;;;;;;14.49;67.93;101893.75;5038323;28;20443;-77
2022/05/18 00:35:59;;;;;;;1.20;1.00;;;;;;;14.53;66.41;101894.81;5038694;28;20493;-77
2022/05/18 00:38:27;;;;;;;1.80;0.90;;;;;;;14.55;66.36;101908.94;5038400;28;20443;-78
2022/05/18 00:40:54;;;;;;;3.27;1.17;;;;;;;14.55;67.47;101899.94;5038407;28;20440;-77
2022/05/18 00:43:37;;;;;;;2.90;1.17;;;;;;;14.60;66.02;101910.78;5038045;28;20448;-77
2022/05/18 00:46:06;;;;;;;4.47;1.30;;;;;;;14.60;66.17;101916.22;5038663;28;20456;-77
2022/05/18 00:48:33;;;;;;;3.10;1.50;;;;;;;14.55;67.44;101908.94;5037631;28;20443;-78
2022/05/18 00:51:02;;;;;;;1.33;0.90;;;;;;;14.55;66.86;101916.31;5038605;28;20940;-77
2022/05/18 00:53:35;;;;;;;1.37;1.00;;;;;;;14.55;66.35;101921.75;5038307;28;20439;-77
2022/05/18 00:56:06;;;;;;;2.53;1.20;;;;;;;14.60;65.38;101927.13;5037646;28;20499;-77
2022/05/18 00:58:39;;;;;;;2.23;1.13;;;;;;;14.63;65.59;101934.75;5037567;28;20431;-77
2022/05/18 01:01:07;;;;;;;2.70;1.43;;;;;;;14.60;64.21;101943.50;5037541;28;20959;-77
2022/05/18 01:03:38;;;;;;;2.07;1.23;;;;;;;14.60;64.85;101943.50;5035826;28;20498;-76
2022/05/18 01:06:10;;;;;;;9.70;1.30;;;;;;;14.57;62.64;101949.56;5035522;28;20463;-77
2022/05/18 01:08:47;;;;;;;2.10;1.10;;;;;;;14.62;63.12;101944.03;5035306;28;20494;-72
2022/05/18 01:11:13;;;;;;;4.73;1.30;;;;;;;14.64;64.76;101950.00;5034683;28;20428;-72
2022/05/18 01:13:40;;;;;;;4.50;1.90;;;;;;;14.56;61.84;101956.09;5034611;28;20806;-72
2022/05/18 01:16:08;;;;;;;2.50;1.17;;;;;;;14.54;61.09;101947.41;5034154;28;20522;-72
2022/05/18 01:18:35;;;;;;;2.43;1.23;;;;;;;14.53;60.19;101952.06;5034525;28;20521;-73
2022/05/18 01:21:02;;;;;;;3.70;1.77;;;;;;;14.56;61.15;101948.72;5034381;28;20450;-73
2022/05/18 01:23:41;;;;;;;2.70;1.63;;;;;;;14.49;63.26;101955.66;5034506;28;20447;-74
2022/05/18 01:26:17;;;;;;;2.30;1.07;;;;;;;14.40;60.53;101952.75;5034058;28;20977;-74
2022/05/18 01:28:51;;;;;;;1.50;1.07;;;;;;;14.41;60.25;101959.00;5034406;28;20439;-73
2022/05/18 01:31:17;;;;;;;3.80;1.53;;;;;;;14.29;58.65;101962.97;5033987;28;20924;-73
2022/05/18 01:33:44;;;;;;;1.50;1.03;;;;;;;14.27;60.60;101975.28;5034211;28;20808;-73
2022/05/18 01:36:10;;;;;;;2.40;1.30;;;;;;;14.21;58.52;101962.78;5034092;28;20490;-74
2022/05/18 01:38:37;;;;;;;2.40;1.23;;;;;;;14.21;59.89;101965.53;5034153;28;20522;-73
2022/05/18 01:41:10;;;;;;;2.43;1.30;;;;;;;14.19;60.16;101967.75;5033995;28;20509;-73
2022/05/18 01:43:41;;;;;;;2.30;1.20;;;;;;;14.19;60.05;101965.81;5034074;28;20801;-73
2022/05/18 01:46:12;;;;;;;2.37;0.90;;;;;;;14.21;60.28;101969.09;5033911;28;20920;-73
2022/05/18 01:48:41;;;;;;;1.43;1.00;;;;;;;14.23;59.53;101975.03;5033708;28;20941;-77
2022/05/18 01:51:10;;;;;;;2.47;0.93;;;;;;;14.22;60.15;101984.34;5034235;28;20813;-73
2022/05/18 01:53:37;;;;;;;2.63;1.13;;;;;;;14.19;59.47;101984.09;5033895;28;20458;-73
2022/05/18 01:56:04;;;;;;;1.87;1.30;;;;;;;14.20;58.78;101991.97;5033653;28;20491;-73
2022/05/18 01:58:31;;;;;;;3.13;1.10;;;;;;;14.24;60.66;101982.09;5033485;28;20439;-73
2022/05/18 02:00:57;;;;;;;2.00;1.30;;;;;;;14.19;59.40;101990.34;5033920;28;20862;-73
2022/05/18 02:03:25;;;;;;;1.93;1.27;;;;;;;14.19;58.58;101992.28;5033697;28;20439;-73
2022/05/18 02:05:53;;;;;;;4.90;1.60;;;;;;;14.16;58.44;101984.66;5033538;28;20455;-73
2022/05/18 02:08:21;;;;;;;1.63;1.27;;;;;;;14.17;58.43;101995.28;5033389;28;20447;-73
2022/05/18 02:10:47;;;;;;;3.67;0.83;;;;;;;14.10;58.24;101997.53;5033734;28;20447;-75
2022/05/18 02:13:14;;;;;;;13.03;1.40;;;;;;;14.11;55.78;101988.25;5033219;28;20964;-73
2022/05/18 02:15:41;;;;;;;4.43;1.47;;;;;;;14.09;55.90;101999.47;5033169;28;20535;-73
2022/05/18 02:18:07;;;;;;;7.30;1.00;;;;;;;13.97;53.69;101992.78;5033418;28;20439;-73
2022/05/18 02:20:35;;;;;;;1.53;0.83;;;;;;;13.94;54.17;101999.63;5033343;28;20823;-73
2022/05/18 02:23:02;;;;;;;9.07;1.30;;;;;;;13.94;55.01;101998.81;5033409;28;20447;-73
2022/05/18 02:25:30;;;;;;;1.37;0.73;;;;;;;13.74;53.28;101997.94;5033134;28;20443;-73
2022/05/18 02:27:57;;;;;;;2.80;0.70;;;;;;;13.75;53.89;101996.81;5033393;28;20443;-73
2022/05/18 02:30:24;;;;;;;1.90;1.10;;;;;;;13.79;54.76;101997.88;5033185;28;20869;-73
2022/05/18 02:32:50;;;;;;;1.13;0.70;;;;;;;13.85;53.86;102001.34;5032832;28;20455;-73
2022/05/18 02:35:17;;;;;;;0.90;0.70;;;;;;;13.88;55.29;101978.97;5032810;28;21000;-73
2022/05/18 02:37:45;;;;;;;2.40;0.90;;;;;;;13.79;52.50;102002.50;5033196;28;20474;-73
2022/05/18 02:40:32;;;;;;;2.70;1.07;;;;;;;13.84;53.31;101997.81;5033154;28;20447;-73
2022/05/18 02:42:58;;;;;;;1.60;0.80;;;;;;;13.81;52.71;101990.25;5033182;28;20481;-73
2022/05/18 02:45:25;;;;;;;0.90;0.67;;;;;;;13.79;53.31;101997.06;5032923;28;20941;-72
2022/05/18 02:47:51;;;;;;;0.83;0.50;;;;;;;13.83;53.35;101998.91;5032788;28;20467;-73
2022/05/18 02:50:18;;;;;;;0.70;0.53;;;;;;;13.82;53.34;101997.31;5033093;28;20439;-73
2022/05/18 02:52:45;;;;;;;0.80;0.50;;;;;;;13.78;52.41;101998.97;5033428;28;20454;-73
2022/05/18 02:57:56;;;;;;;3.50;0.83;;;;;;;13.76;50.92;101994.91;5033115;28;20959;-72
2022/05/18 03:00:22;;;;;;;1.20;0.80;;;;;;;13.65;50.58;101999.66;5033038;28;20443;-72
2022/05/18 03:02:49;;;;;;;2.30;0.93;;;;;;;13.58;50.07;102001.88;5032951;28;20975;-72
2022/05/18 03:05:16;;;;;;;1.67;0.90;;;;;;;13.57;50.65;102009.25;5032907;28;20443;-72
2022/05/18 03:07:43;;;;;;;2.53;0.80;;;;;;;13.52;50.52;102003.03;5032835;28;20459;-71
2022/05/18 03:10:15;;;;;;;1.90;0.80;;;;;;;13.48;50.36;102016.41;5034081;28;20941;-72
2022/05/18 03:12:42;;;;;;;1.03;0.70;;;;;;;13.48;50.74;102013.69;5036941;28;20442;-73
2022/05/18 03:15:09;;;;;;;1.17;0.60;;;;;;;13.47;50.06;102016.69;5036517;28;20824;-72
2022/05/18 03:17:36;;;;;;;3.10;1.20;;;;;;;13.41;49.40;102018.63;5038291;28;20467;-73
2022/05/18 03:20:03;;;;;;;1.60;0.80;;;;;;;13.47;50.07;102017.50;5036765;28;20447;-74
2022/05/18 03:25:15;;;;;;;1.43;0.90;;;;;;;13.46;48.00;102023.22;5036493;28;20453;-75
2022/05/18 03:27:42;;;;;;;1.63;0.93;;;;;;;13.48;49.87;102024.56;5036840;28;20463;-73
2022/05/18 03:30:12;;;;;;;1.47;0.83;;;;;;;13.48;50.15;102023.75;5036573;28;20498;-73
2022/05/18 03:32:39;;;;;;;4.43;0.70;;;;;;;13.46;49.74;102023.22;5036618;28;20442;-73
2022/05/18 03:35:08;;;;;;;1.87;0.77;;;;;;;13.50;48.16;102030.56;5036488;28;20545;-73
2022/05/18 03:37:34;;;;;;;1.00;0.50;;;;;;;13.50;49.42;102032.44;5037045;28;20487;-74
2022/05/18 03:40:01;;;;;;;0.80;0.60;;;;;;;13.40;47.19;102032.53;5036611;28;20447;-69
2022/05/18 03:42:28;;;;;;;0.70;0.43;;;;;;;13.49;49.15;102033.53;5036300;28;20454;-71
2022/05/18 03:44:55;;;;;;;0.90;0.57;;;;;;;13.44;47.91;102028.16;5036391;28;20500;-77
2022/05/18 03:47:21;;;;;;;2.50;1.13;;;;;;;13.45;47.77;102037.94;5037074;28;20889;-77
2022/05/18 03:49:47;;;;;;;1.00;0.70;;;;;;;13.45;48.31;102025.13;5037433;28;20454;-76
2022/05/18 03:52:14;;;;;;;0.90;0.60;;;;;;;13.53;47.98;102035.41;5038133;28;20438;-76
2022/05/18 03:54:40;;;;;;;1.50;0.97;;;;;;;13.51;48.44;102039.53;5037132;28;20955;-77
2022/05/18 03:57:09;;;;;;;1.00;0.70;;;;;;;13.53;47.14;102042.75;5037003;28;20493;-77
2022/05/18 03:59:38;;;;;;;0.80;0.50;;;;;;;13.57;47.75;102036.47;5036678;28;20454;-77
2022/05/18 04:02:05;;;;;;;1.60;0.83;;;;;;;13.56;48.61;102044.94;5037384;28;20455;-77
2022/05/18 04:04:32;;;;;;;1.00;0.50;;;;;;;13.51;48.75;102039.53;5036890;28;20447;-77
2022/05/18 04:06:58;;;;;;;0.93;0.50;;;;;;;13.39;48.71;102048.03;5036497;28;20486;-77
2022/05/18 04:09:25;;;;;;;1.33;0.63;;;;;;;13.38;48.23;102041.78;5036617;28;20477;-77
2022/05/18 04:11:51;;;;;;;0.80;0.60;;;;;;;13.44;48.20;102047.19;5036460;28;20439;-77
2022/05/18 04:14:18;;;;;;;0.80;0.50;;;;;;;13.52;48.22;102049.31;5036567;28;20450;-77
2022/05/18 04:16:49;;;;;;;1.20;0.67;;;;;;;13.59;47.73;102050.63;5036076;28;20955;-77
2022/05/18 04:19:15;;;;;;;1.80;0.70;;;;;;;13.60;49.47;102046.78;5036372;28;20447;-76
2022/05/18 04:21:42;;;;;;;0.90;0.70;;;;;;;13.60;49.46;102048.72;5035046;28;20443;-77
2022/05/18 04:24:08;;;;;;;1.10;0.60;;;;;;;13.55;48.01;102048.75;5035997;28;20451;-77
2022/05/18 04:26:35;;;;;;;1.03;0.60;;;;;;;13.66;48.03;102050.28;5036378;28;20973;-76
2022/05/18 04:29:01;;;;;;;2.23;1.07;;;;;;;13.70;47.73;102059.50;5037179;28;20439;-77
2022/05/18 04:31:27;;;;;;;1.30;0.77;;;;;;;13.67;47.90;102051.09;5036840;28;20470;-77
2022/05/18 04:33:55;;;;;;;1.80;0.80;;;;;;;13.64;47.33;102052.50;5036423;28;20447;-77
2022/05/18 04:36:21;;;;;;;9.73;1.00;;;;;;;13.69;48.29;102052.44;5036150;28;20552;-76
2022/05/18 04:38:48;;;;;;;3.10;0.70;;;;;;;13.68;46.71;102052.69;5035997;28;20882;-76
2022/05/18 04:41:14;;;;;;;1.10;0.60;;;;;;;13.67;47.74;102060.06;5036089;28;20443;-76
2022/05/18 04:43:41;;;;;;;1.17;0.60;;;;;;;13.71;48.71;102061.13;5035769;28;20443;-77
2022/05/18 04:46:08;;;;;;;1.37;1.00;;;;;;;13.71;46.76;102072.00;5035481;28;20534;-76
2022/05/18 04:48:34;;;;;;;0.87;0.73;;;;;;;13.75;47.45;102066.81;5035133;28;20476;-76
2022/05/18 04:51:05;;;;;;;1.77;0.77;;;;;;;13.74;47.00;102070.66;5035754;28;20443;-75
2022/05/18 04:53:32;;;;;;;0.80;0.60;;;;;;;13.79;47.84;102079.56;5035351;28;20523;-75
2022/05/18 04:55:58;;;;;;;1.30;0.77;;;;;;;13.85;48.37;102078.41;5034900;28;21015;-76
2022/05/18 04:58:25;;;;;;;3.50;1.13;;;;;;;13.87;48.19;102080.88;5035218;28;20443;-75
2022/05/18 05:00:58;;;;;;;2.13;1.00;;;;;;;13.67;46.50;102081.84;5034853;28;20469;-73
2022/05/18 05:03:24;;;;;;;1.33;0.97;;;;;;;13.62;48.43;102085.44;5034938;28;20459;-74
2022/05/18 05:05:51;;;;;;;1.60;1.20;;;;;;;13.66;49.47;102080.22;5034740;28;20482;-73
2022/05/18 05:08:18;;;;;;;1.17;0.70;;;;;;;13.68;48.30;102088.09;5034819;28;20449;-74
2022/05/18 05:10:45;;;;;;;1.80;0.60;;;;;;;13.72;50.34;102083.72;5034724;28;20479;-73
2022/05/18 05:13:11;;;;;;;1.20;0.80;;;;;;;13.74;50.62;102090.50;5034635;28;20557;-73
2022/05/18 05:15:38;;;;;;;3.23;0.93;;;;;;;13.73;51.06;102086.19;5034483;28;20455;-73
2022/05/18 05:18:05;;;;;;;3.77;1.00;;;;;;;13.82;52.63;102089.91;5034605;28;20479;-74
2022/05/18 05:20:31;;;;;;;0.80;0.57;;;;;;;13.91;52.39;102092.03;5034486;28;20444;-74
2022/05/18 05:22:58;;;;;;;1.37;0.70;;;;;;;13.94;52.07;102094.16;5034329;28;20474;-71
2022/05/18 05:25:25;;;;;;;1.97;1.07;;;;;;;13.95;52.10;102093.06;5034345;28;20450;-72
2022/05/18 05:27:52;;;;;;;1.20;0.73;;;;;;;13.99;50.90;102091.38;5034209;28;20462;-70
2022/05/18 05:30:19;;;;;;;1.90;1.10;;;;;;;14.06;49.93;102089.13;5034411;28;20447;-70
2022/05/18 05:32:45;;;;;;;1.67;1.07;;;;;;;14.05;50.83;102093.78;5033674;28;20446;-72
2022/05/18 05:35:13;;;;;;;1.37;0.60;;;;;;;14.09;51.90;102088.56;5034154;28;20447;-70
2022/05/18 05:37:40;;;;;;;1.60;0.93;;;;;;;14.11;50.16;102092.63;5033831;28;20544;-72
2022/05/18 05:40:08;;;;;;;1.73;1.13;;;;;;;14.14;52.45;102092.06;5034175;28;20885;-72
2022/05/18 05:42:37;;;;;;;1.53;1.00;;;;;;;14.16;50.27;102089.03;5034130;28;20442;-70
2022/05/18 05:45:03;;;;;;;2.10;1.27;;;;;;;14.21;50.99;102091.72;5034067;28;20446;-72
2022/05/18 05:47:30;;;;;;;1.57;0.87;;;;;;;14.24;49.87;102096.56;5033997;28;20463;-72
2022/05/18 05:49:56;;;;;;;1.77;0.70;;;;;;;14.29;48.17;102103.88;5033933;28;20435;-72
2022/05/18 05:52:23;;;;;;;2.60;1.23;;;;;;;14.29;52.29;102098.44;5033939;28;20444;-72
2022/05/18 05:54:49;;;;;;;8.13;1.10;;;;;;;14.34;51.06;102092.94;5034147;28;20435;-72
2022/05/18 05:57:15;;;;;;;1.17;0.90;;;;;;;14.40;50.33;102099.97;5033719;28;20521;-73
2022/05/18 05:59:43;;;;;;;1.57;1.00;;;;;;;14.50;50.90;102107.25;5033810;28;20448;-73
2022/05/18 06:02:11;;;;;;;3.80;0.90;;;;;;;14.43;50.71;102099.38;5034001;28;20455;-71
2022/05/18 06:04:39;;;;;;;1.70;0.93;;;;;;;14.50;50.33;102097.16;5033745;28;20531;-70
2022/05/18 06:07:05;;;;;;;3.80;1.17;;;;;;;14.63;49.76;102103.81;5033692;28;20825;-72
2022/05/18 06:09:32;;;;;;;0.70;0.50;;;;;;;14.65;50.93;102115.25;5033671;28;20439;-72
2022/05/18 06:11:58;;;;;;;2.60;1.20;;;;;;;14.72;51.02;102107.53;5033356;28;20955;-72
2022/05/18 06:14:25;;;;;;;6.73;1.00;;;;;;;14.77;49.78;102109.38;5033226;28;20864;-73
2022/05/18 06:16:53;;;;;;;1.83;1.00;;;;;;;14.87;52.00;102111.97;5033109;28;20495;-73
2022/05/18 06:19:19;;;;;;;1.20;0.80;;;;;;;14.99;51.66;102108.84;5033574;28;20509;-74
2022/05/18 06:21:47;;;;;;;2.87;1.43;;;;;;;15.10;51.32;102107.59;5033422;28;20455;-74
2022/05/18 06:24:15;;;;;;;8.50;1.40;;;;;;;15.19;51.55;102115.94;5033650;28;20443;-74
2022/05/18 06:26:41;;;;;;;1.43;1.03;;;;;;;15.32;50.07;102113.28;5033594;28;20531;-73
2022/05/18 06:29:08;;;;;;;1.37;0.90;;;;;;;15.37;49.49;102110.47;5033122;28;21002;-73
2022/05/18 06:31:34;;;;;;;1.40;1.00;;;;;;;15.44;51.17;102112.00;5033226;28;20446;-74
2022/05/18 06:34:02;;;;;;;2.07;1.20;;;;;;;15.54;50.30;102111.88;5033269;28;20450;-75
2022/05/18 06:36:30;;;;;;;3.20;1.30;;;;;;;15.62;50.78;102114.72;5033093;28;20467;-75
2022/05/18 06:38:56;;;;;;;2.20;1.40;;;;;;;15.67;51.09;102124.81;5033237;28;20493;-73
2022/05/18 06:41:23;;;;;;;2.33;1.30;;;;;;;15.66;51.33;102114.97;5033204;28;20454;-74
2022/05/18 06:43:50;;;;;;;1.70;1.13;;;;;;;15.68;49.57;102125.63;5033113;28;20450;-74
2022/05/18 06:46:17;;;;;;;1.70;1.07;;;;;;;15.70;50.96;102124.19;5032782;28;20474;-74
2022/05/18 06:48:44;;;;;;;3.40;1.90;;;;;;;15.76;51.13;102125.75;5033292;28;20447;-78
2022/05/18 06:51:12;;;;;;;1.97;1.37;;;;;;;15.81;52.02;102128.41;5033106;28;20500;-74
2022/05/18 06:53:39;;;;;;;2.43;1.47;;;;;;;15.82;51.42;102124.56;5032801;28;20932;-73
2022/05/18 06:56:05;;;;;;;1.20;0.93;;;;;;;15.93;51.58;102135.31;5032999;28;20471;-73
2022/05/18 06:58:32;;;;;;;4.90;1.83;;;;;;;16.01;50.13;102134.63;5032937;28;20486;-74
2022/05/18 07:01:01;;;;;;;2.57;1.37;;;;;;;16.07;51.14;102138.88;5032658;28;20862;-74
2022/05/18 07:03:27;;;;;;;2.37;1.20;;;;;;;16.13;52.85;102129.50;5033047;28;20459;-74
2022/05/18 07:05:54;;;;;;;2.70;1.10;;;;;;;16.17;51.81;102130.53;5032960;28;20463;-74
2022/05/18 07:08:22;;;;;;;1.63;1.30;;;;;;;16.18;52.82;102136.81;5033033;28;20526;-73
2022/05/18 07:10:48;;;;;;;2.40;1.50;;;;;;;16.15;54.33;102139.00;5032935;28;20530;-73
2022/05/18 07:13:17;;;;;;;2.90;1.30;;;;;;;16.15;52.34;102135.47;5032655;28;20529;-74
2022/05/18 07:15:44;;;;;;;2.90;1.93;;;;;;;16.17;57.23;102137.91;5032849;28;20498;-74
2022/05/18 07:18:11;;;;;;;3.07;1.10;;;;;;;16.20;60.55;102145.50;5032525;28;20521;-73
2022/05/18 07:20:37;;;;;;;1.73;1.17;;;;;;;16.15;56.76;102132.72;5032888;28;20510;-74
2022/05/18 07:23:04;;;;;;;3.90;1.50;;;;;;;16.22;64.07;102133.16;5033001;28;20474;-74
2022/05/18 07:25:32;;;;;;;2.33;1.80;;;;;;;16.17;64.86;102133.25;5032766;28;20447;-74
2022/05/18 07:27:59;;;;;;;3.00;1.40;;;;;;;16.09;65.31;102140.22;5032720;28;20439;-74
2022/05/18 07:30:25;;;;;;;1.70;1.50;;;;;;;16.12;61.64;102141.56;5032503;28;20967;-73
2022/05/18 07:32:52;;;;;;;8.40;2.20;;;;;;;16.12;58.22;102145.09;5032751;28;20470;-74
2022/05/18 07:35:18;;;;;;;5.37;2.33;;;;;;;16.18;63.51;102137.59;5032698;28;20443;-73
2022/05/18 07:37:45;;;;;;;1.50;1.23;;;;;;;16.17;66.94;102135.19;5032608;28;20530;-74
2022/05/18 07:40:12;;;;;;;2.30;1.53;;;;;;;16.21;65.32;102136.22;5032620;28;20956;-74
2022/05/18 07:42:40;;;;;;;3.90;1.70;;;;;;;16.18;60.52;102131.34;5032370;28;20972;-74
2022/05/18 07:45:07;;;;;;;3.10;1.50;;;;;;;16.29;61.60;102119.91;5032669;28;20443;-74
2022/05/18 07:47:34;;;;;;;2.30;1.70;;;;;;;16.44;58.91;102120.75;5032566;28;20467;-71
2022/05/18 07:50:00;;;;;;;1.90;1.47;;;;;;;16.55;57.90;102119.41;5032613;28;20447;-74
2022/05/18 07:52:27;;;;;;;3.70;1.93;;;;;;;16.67;60.85;102122.47;5032582;28;20466;-73
2022/05/18 07:54:53;;;;;;;3.53;1.77;;;;;;;16.70;62.38;102124.59;5032221;28;20447;-73
2022/05/18 07:57:20;;;;;;;4.63;1.80;;;;;;;16.76;61.50;102120.66;5035391;28;20490;-73
2022/05/18 07:59:47;;;;;;;3.30;2.17;;;;;;;16.87;64.64;102116.59;5036063;28;20447;-73
2022/05/18 08:02:14;;;;;;;2.10;1.60;;;;;;;16.96;63.25;102122.19;5036031;28;20434;-74
2022/05/18 08:04:40;;;;;;;5.03;1.70;;;;;;;17.02;60.95;102112.72;5036057;28;20474;-73
2022/05/18 08:07:07;;;;;;;5.10;2.17;;;;;;;17.11;62.03;102123.75;5035860;28;20455;-73
2022/05/18 08:15:05;;;;;;;4.30;1.63;;;;;;;17.15;59.85;102127.50;5035821;28;20451;-73
2022/05/18 08:15:06;;;;;;;4.50;2.10;;;;;;;17.28;58.74;102126.66;5035524;28;20906;-72
2022/05/18 08:17:33;;;;;;;7.40;1.90;;;;;;;17.39;60.21;102119.81;5035289;28;21011;-73
2022/05/18 08:20:00;;;;;;;2.67;1.83;;;;;;;17.48;58.70;102119.09;5035700;28;20780;-72
2022/05/18 08:22:27;;;;;;;1.77;1.50;;;;;;;17.56;59.04;102121.91;5035704;28;20474;-73
2022/05/18 08:24:54;;;;;;;4.10;1.73;;;;;;;17.67;56.31;102114.25;5035715;28;20542;-73
2022/05/18 08:27:20;;;;;;;3.00;1.70;;;;;;;17.78;58.64;102115.63;5035540;28;20463;-73
2022/05/18 08:29:46;;;;;;;7.40;2.50;;;;;;;17.92;58.90;102112.81;5035198;28;20933;-73
2022/05/18 08:32:14;;;;;;;3.87;1.67;;;;;;;18.02;58.42;102122.75;5035410;28;20448;-73
2022/05/18 08:34:41;;;;;;;2.90;1.50;;;;;;;18.09;59.32;102115.66;5035382;28;20450;-73
2022/05/18 08:37:07;;;;;;;3.20;1.90;;;;;;;18.19;60.96;102116.53;5035220;28;20498;-73
2022/05/18 08:39:34;;;;;;;3.70;2.50;;;;;;;18.26;57.36;102097.69;5035396;28;20444;-73
2022/05/18 08:42:01;;;;;;;4.63;2.87;;;;;;;18.33;57.63;102101.59;5035329;28;20511;-73
2022/05/18 08:44:31;;;;;;;1.80;1.53;;;;;;;18.51;58.26;102101.66;5035239;28;20530;-73
2022/05/18 08:47:09;;;;;;;2.57;2.10;;;;;;;18.62;55.45;102102.97;5035100;28;20466;-73
2022/05/18 08:49:42;;;;;;;3.87;2.50;;;;;;;18.73;56.13;102098.84;5035282;28;20463;-74
2022/05/18 08:52:27;;;;;;;4.43;1.80;;;;;;;18.83;57.11;102109.53;5035096;28;20423;-73
2022/05/18 08:55:09;;;;;;;3.60;1.60;;;;;;;18.95;57.82;102100.69;5035105;28;20434;-73
2022/05/18 08:57:41;;;;;;;3.07;1.77;;;;;;;19.09;56.49;102111.53;5034740;28;21004;-73
2022/05/18 09:00:13;;;;;;;4.50;2.50;;;;;;;19.16;56.73;102109.91;5034945;28;20438;-73
2022/05/18 09:02:42;;;;;;;3.50;2.50;;;;;;;19.25;56.71;102112.66;5035003;28;20428;-73
2022/05/18 09:05:14;;;;;;;2.60;1.90;;;;;;;19.36;56.38;102104.91;5034809;28;20439;-73
2022/05/18 09:07:47;;;;;;;3.30;2.03;;;;;;;19.47;54.45;102110.88;5034166;28;20839;-73
2022/05/18 09:10:25;;;;;;;2.50;1.90;;;;;;;19.59;53.94;102108.28;5034748;28;20423;-73
2022/05/18 09:12:52;;;;;;;5.33;2.30;;;;;;;19.59;55.56;102103.59;5034993;28;20427;-73
2022/05/18 09:15:24;;;;;;;3.93;2.40;;;;;;;19.67;54.43;102106.72;5034600;28;20454;-73
2022/05/18 09:17:55;;;;;;;4.37;2.40;;;;;;;19.75;55.14;102097.66;5034757;28;20482;-73
2022/05/18 09:20:24;;;;;;;4.87;2.17;;;;;;;19.85;56.45;102105.53;5036426;28;20443;-73
2022/05/18 09:23:10;;;;;;;4.03;2.73;;;;;;;19.98;56.71;102092.72;5034387;28;20423;-73
2022/05/18 09:25:55;;;;;;;5.70;2.00;;;;;;;20.17;55.28;102098.66;5034307;28;20431;-73
2022/05/18 09:28:38;;;;;;;8.50;2.80;;;;;;;20.31;53.85;102090.16;5034484;28;20427;-73
2022/05/18 09:31:16;;;;;;;6.97;2.60;;;;;;;20.41;53.48;102098.88;5034412;28;20438;-73
2022/05/18 09:34:16;;;;;;;4.33;2.30;;;;;;;20.54;54.75;102094.31;5034525;28;20471;-73
2022/05/18 09:36:56;;;;;;;3.10;1.87;;;;;;;20.72;54.53;102086.78;5031761;28;20471;-73
2022/05/18 09:39:27;;;;;;;3.97;2.07;;;;;;;20.88;53.66;102093.28;5034086;28;20501;-73
2022/05/18 09:41:59;;;;;;;2.63;1.80;;;;;;;21.01;52.16;102087.88;5034157;28;20834;-73
2022/05/18 09:44:32;;;;;;;4.33;2.30;;;;;;;21.08;53.90;102083.44;5034184;28;20424;-73
2022/05/18 09:47:01;;;;;;;4.33;3.07;;;;;;;21.11;54.77;102084.72;5034007;28;20463;-73
2022/05/18 09:49:33;;;;;;;2.50;2.27;;;;;;;21.18;54.81;102084.97;5033720;28;20937;-73
2022/05/18 09:52:04;;;;;;;3.50;2.20;;;;;;;21.14;54.22;102086.78;5034093;28;20463;-73
2022/05/18 09:54:32;;;;;;;4.57;2.43;;;;;;;21.23;54.88;102087.53;5033920;28;20440;-73
2022/05/18 09:57:06;;;;;;;3.10;2.23;;;;;;;21.42;52.25;102078.81;5033517;28;20969;-73
2022/05/18 09:59:38;;;;;;;7.40;2.10;;;;;;;21.48;53.96;102082.19;5033866;28;20465;-73
2022/05/18 10:07:47;;;;;;;4.17;2.80;;;;;;;21.84;54.94;102074.00;5033505;28;20458;-74
2022/05/18 10:10:21;;;;;;;3.13;2.50;;;;;;;21.90;55.44;102069.06;5033721;28;20427;-73
2022/05/18 10:12:58;;;;;;;3.57;2.87;;;;;;;22.01;54.92;102066.69;5033365;28;20905;-73
2022/05/18 10:15:33;;;;;;;3.87;2.80;;;;;;;22.15;55.98;102069.94;5033518;28;20493;-73
2022/05/18 10:18:10;;;;;;;6.63;2.57;;;;;;;22.21;53.50;102071.31;5033560;28;20489;-73
2022/05/18 10:20:38;;;;;;;2.67;2.13;;;;;;;22.26;53.32;102062.81;5032684;28;20438;-73
2022/05/18 10:23:29;;;;;;;3.17;2.47;;;;;;;22.36;53.55;102059.63;5033464;28;20439;-73
2022/05/18 10:25:56;;;;;;;4.20;3.00;;;;;;;22.44;51.87;102066.16;5033395;28;20474;-73
2022/05/18 10:28:25;;;;;;;5.00;2.83;;;;;;;22.54;52.85;102070.44;5033404;28;20439;-73
2022/05/18 10:30:57;;;;;;;3.57;3.00;;;;;;;22.49;51.10;102070.63;5033326;28;20438;-73
2022/05/18 10:33:31;;;;;;;4.70;2.77;;;;;;;22.46;55.07;102065.81;5033370;28;20473;-73
2022/05/18 10:36:07;;;;;;;2.90;2.47;;;;;;;22.54;52.34;102074.00;5033051;28;20493;-73
2022/05/18 10:38:37;;;;;;;5.40;3.60;;;;;;;22.73;51.89;102064.31;5033201;28;20463;-74
2022/05/18 10:41:13;;;;;;;7.53;4.00;;;;;;;22.80;51.95;102068.09;5033160;28;20442;-73
2022/05/18 10:43:43;;;;;;;4.07;3.30;;;;;;;22.94;53.64;102061.41;5033301;28;20467;-74
2022/05/18 10:46:11;;;;;;;3.80;3.23;;;;;;;23.08;53.40;102068.16;5032967;28;20466;-74
2022/05/18 10:48:41;;;;;;;5.10;4.23;;;;;;;23.17;52.34;102059.72;5033100;28;20439;-73
2022/05/18 10:51:10;;;;;;;4.20;3.27;;;;;;;23.35;51.78;102051.94;5033119;28;20542;-73
2022/05/18 10:53:41;;;;;;;3.73;2.60;;;;;;;23.47;50.99;102062.16;5033174;28;20458;-73
2022/05/18 10:56:10;;;;;;;5.40;2.90;;;;;;;23.64;51.73;102059.03;5033048;28;20478;-73
2022/05/18 10:58:40;;;;;;;4.67;3.47;;;;;;;23.82;50.95;102057.59;5032969;28;20906;-73
2022/05/18 11:01:12;;;;;;;4.47;2.70;;;;;;;23.88;49.38;102064.47;5033011;28;20432;-73
2022/05/18 11:03:46;;;;;;;5.47;3.33;;;;;;;23.88;48.97;102058.94;5033035;28;20427;-73
2022/05/18 11:06:18;;;;;;;6.67;3.20;;;;;;;24.08;49.02;102050.72;5032979;28;20896;-73
2022/05/18 11:08:46;;;;;;;6.20;2.93;;;;;;;24.29;50.57;102050.44;5032684;28;20423;-73
2022/05/18 11:11:19;;;;;;;3.83;2.90;;;;;;;24.59;48.91;102048.00;5033007;28;20451;-73
2022/05/18 11:13:52;;;;;;;6.90;2.80;;;;;;;25.22;48.00;102047.00;5032695;28;20424;-73
2022/05/18 11:16:42;;;;;;;3.90;2.80;;;;;;;26.12;46.04;102050.28;5032562;28;20479;-73
2022/05/18 11:19:31;;;;;;;3.60;2.73;;;;;;;26.70;42.32;102040.84;5032842;28;20566;-73
2022/05/18 11:22:19;;;;;;;4.13;2.80;;;;;;;27.61;43.11;102047.91;5032934;28;20850;-73
2022/05/18 11:24:58;;;;;;;5.20;2.50;;;;;;;28.46;40.56;102036.69;5032908;28;20430;-73
2022/05/18 11:27:30;;;;;;;3.77;2.57;;;;;;;29.02;39.68;102043.78;5032695;28;20470;-73
2022/05/18 11:30:06;;;;;;;4.97;2.47;;;;;;;28.98;39.72;102028.22;5032661;28;20431;-73
2022/05/18 11:32:43;;;;;;;5.80;2.70;;;;;;;28.96;37.64;102028.63;5036341;28;20427;-73
2022/05/18 11:35:34;;;;;;;3.70;2.57;;;;;;;29.06;39.88;102022.28;5036284;28;20905;-72
2022/05/18 11:38:27;;;;;;;5.23;2.53;;;;;;;29.21;38.71;102019.53;5036470;28;20430;-73
2022/05/18 11:41:05;;;;;;;5.40;2.97;;;;;;;29.53;38.29;102020.41;5035317;28;20477;-73
2022/05/18 11:43:46;;;;;;;3.13;2.60;;;;;;;29.80;37.99;102014.47;5036394;28;20438;-73
2022/05/18 11:46:32;;;;;;;3.50;2.20;;;;;;;29.95;36.42;102018.06;5036243;28;20469;-73
2022/05/18 11:49:10;;;;;;;3.70;2.80;;;;;;;30.11;36.88;102008.06;5036346;28;20473;-73